Time;durP1;ratioP1;P1;durP2;ratioP2;P2;SDS_P1;SDS_P2;PMS_P1;PMS_P2;Temp;Humidity;BMP_temperature;BMP_pressure;BME280_temperature;BME280_humidity;BME280_pressure;Samples;Min_cycle;Max_cycle;Signal;HPM_P1;HPM_P2
2022/07/16 00:02:53;;;;;;;;;;;17.20;93.80;;;;;;4963474;28;25113;-63
2022/07/16 00:05:21;;;;;;;;;;;17.00;94.50;;;;;;4960068;28;20124;-63
2022/07/16 00:07:49;;;;;;;;;;;16.90;95.00;;;;;;4973014;28;20728;-63
2022/07/16 00:10:18;;;;;;;;;;;16.90;95.20;;;;;;5008706;28;20188;-63
2022/07/16 00:12:46;;;;;;;;;;;16.90;95.70;;;;;;5001045;28;20143;-63
2022/07/16 00:15:14;;;;;;;;;;;16.90;95.90;;;;;;5007669;28;20282;-63
2022/07/16 00:17:41;;;;;;;;;;;16.80;96.60;;;;;;5008249;28;20241;-63
2022/07/16 00:20:09;;;;;;;;;;;16.80;97.10;;;;;;5005594;28;20204;-63
2022/07/16 00:22:37;;;;;;;;;;;16.70;97.10;;;;;;5004624;28;20226;-63
2022/07/16 00:25:05;;;;;;;;;;;16.70;97.40;;;;;;4997287;28;20204;-63
2022/07/16 00:27:34;;;;;;;;;;;16.60;97.60;;;;;;5005031;28;20172;-63
2022/07/16 00:30:02;;;;;;;;;;;16.60;97.70;;;;;;5004811;28;20658;-63
2022/07/16 00:32:30;;;;;;;;;;;16.50;97.60;;;;;;5012583;28;20121;-63
2022/07/16 00:34:57;;;;;;;;;;;16.40;97.80;;;;;;5000383;28;25082;-63
2022/07/16 00:37:25;;;;;;;;;;;16.40;98.80;;;;;;5012676;28;20113;-63
2022/07/16 00:39:53;;;;;;;;;;;16.30;98.40;;;;;;5006750;28;20243;-63
2022/07/16 00:42:21;;;;;;;;;;;16.40;98.60;;;;;;5008007;28;20226;-63
2022/07/16 00:44:50;;;;;;;;;;;16.40;98.70;;;;;;5010107;28;20100;-64
2022/07/16 00:47:18;;;;;;;;;;;16.40;99.00;;;;;;5013385;28;20297;-63
2022/07/16 00:49:45;;;;;;;;;;;16.30;99.20;;;;;;5005343;28;20159;-64
2022/07/16 00:52:13;;;;;;;;;;;16.30;99.40;;;;;;5006996;28;20158;-63
2022/07/16 00:54:41;;;;;;;;;;;16.20;99.70;;;;;;5006691;28;20669;-63
2022/07/16 00:57:09;;;;;;;;;;;16.20;99.90;;;;;;5007732;28;20102;-63
2022/07/16 00:59:36;;;;;;;;;;;16.10;99.90;;;;;;5005624;28;20282;-63
2022/07/16 01:02:06;;;;;;;;;;;16.10;99.90;;;;;;5009629;28;20283;-63
2022/07/16 01:04:34;;;;;;;;;;;16.00;99.90;;;;;;5006786;28;20256;-64
2022/07/16 01:07:03;;;;;;;;;;;16.10;99.90;;;;;;5001839;28;20621;-63
2022/07/16 01:09:32;;;;;;;;;;;16.00;99.90;;;;;;5006956;28;20239;-64
2022/07/16 01:12:00;;;;;;;;;;;16.00;99.90;;;;;;5004348;28;20720;-64
2022/07/16 01:14:28;;;;;;;;;;;15.90;99.90;;;;;;5013324;28;20385;-64
2022/07/16 01:16:56;;;;;;;;;;;15.80;99.90;;;;;;4999230;28;25061;-64
2022/07/16 01:19:25;;;;;;;;;;;15.80;99.90;;;;;;4994539;28;20158;-63
2022/07/16 01:21:52;;;;;;;;;;;15.80;99.90;;;;;;4993868;28;20683;-64
2022/07/16 01:24:21;;;;;;;;;;;15.80;99.90;;;;;;4993575;28;20233;-64
2022/07/16 01:26:49;;;;;;;;;;;15.80;99.90;;;;;;4993507;28;25088;-64
2022/07/16 01:29:17;;;;;;;;;;;15.80;99.90;;;;;;4993495;28;20104;-63
2022/07/16 01:31:45;;;;;;;;;;;15.80;99.90;;;;;;5000199;28;20667;-63
2022/07/16 01:34:28;;;;;;;;;;;15.70;99.90;;;;;;4996064;28;20271;-64
2022/07/16 01:36:56;;;;;;;;;;;15.80;99.90;;;;;;4994567;28;20196;-63
2022/07/16 01:39:26;;;;;;;;;;;15.80;99.90;;;;;;4992522;28;21590;-63
2022/07/16 01:41:55;;;;;;;;;;;15.70;99.90;;;;;;4992276;28;20743;-63
2022/07/16 01:44:24;;;;;;;;;;;15.70;99.90;;;;;;4992725;28;20554;-63
2022/07/16 01:46:52;;;;;;;;;;;15.70;99.90;;;;;;5001192;28;20241;-63
2022/07/16 01:49:20;;;;;;;;;;;15.70;99.90;;;;;;4992291;28;20231;-63
2022/07/16 01:51:48;;;;;;;;;;;15.60;99.90;;;;;;4992573;28;20161;-63
2022/07/16 01:54:16;;;;;;;;;;;15.70;99.90;;;;;;4997308;28;20213;-63
2022/07/16 01:56:45;;;;;;;;;;;15.70;99.90;;;;;;4995316;28;20800;-63
2022/07/16 01:59:13;;;;;;;;;;;15.60;99.90;;;;;;4992875;28;20219;-63
2022/07/16 02:01:41;;;;;;;;;;;15.70;99.90;;;;;;4996289;28;20206;-63
2022/07/16 02:04:08;;;;;;;;;;;15.70;99.90;;;;;;4994497;28;20247;-63
2022/07/16 02:06:36;;;;;;;;;;;15.70;99.90;;;;;;4994936;28;20171;-63
2022/07/16 02:09:04;;;;;;;;;;;15.60;99.90;;;;;;4997751;28;20673;-64
2022/07/16 02:11:32;;;;;;;;;;;15.60;99.90;;;;;;4991280;28;20082;-63
2022/07/16 02:14:01;;;;;;;;;;;15.50;99.90;;;;;;5000427;28;20135;-64
2022/07/16 02:16:29;;;;;;;;;;;15.50;99.90;;;;;;4990149;28;20364;-64
2022/07/16 02:18:56;;;;;;;;;;;15.60;99.90;;;;;;4995924;28;25156;-63
2022/07/16 02:21:24;;;;;;;;;;;15.60;99.90;;;;;;4994624;28;20197;-63
2022/07/16 02:23:52;;;;;;;;;;;15.60;99.90;;;;;;4993663;28;20221;-63
2022/07/16 02:26:20;;;;;;;;;;;15.50;99.90;;;;;;4992904;28;20114;-63
2022/07/16 02:28:48;;;;;;;;;;;15.50;99.90;;;;;;4992646;28;20203;-63
2022/07/16 02:31:17;;;;;;;;;;;15.50;99.90;;;;;;4998967;28;20106;-63
2022/07/16 02:33:45;;;;;;;;;;;15.50;99.90;;;;;;4994807;28;20102;-63
2022/07/16 02:36:13;;;;;;;;;;;15.50;99.90;;;;;;4991113;28;20373;-64
2022/07/16 02:38:41;;;;;;;;;;;15.40;99.90;;;;;;4993207;28;20731;-64
2022/07/16 02:41:08;;;;;;;;;;;15.40;99.90;;;;;;4999873;28;20202;-64
2022/07/16 02:43:36;;;;;;;;;;;15.40;99.90;;;;;;4997926;28;20196;-63
2022/07/16 02:46:04;;;;;;;;;;;15.40;99.90;;;;;;4988689;28;20196;-63
2022/07/16 02:48:33;;;;;;;;;;;15.30;99.90;;;;;;4995907;28;20747;-63
2022/07/16 02:51:01;;;;;;;;;;;15.30;99.90;;;;;;4993939;28;20128;-64
2022/07/16 02:53:29;;;;;;;;;;;15.20;99.90;;;;;;4996644;28;20203;-64
2022/07/16 02:55:56;;;;;;;;;;;15.20;99.90;;;;;;4990392;28;20391;-64
2022/07/16 02:58:24;;;;;;;;;;;15.20;99.90;;;;;;4994676;28;20360;-62
2022/07/16 03:00:52;;;;;;;;;;;15.30;99.90;;;;;;4995151;28;20889;-62
2022/07/16 03:03:20;;;;;;;;;;;15.30;99.90;;;;;;4993473;28;20249;-63
2022/07/16 03:05:49;;;;;;;;;;;15.30;99.90;;;;;;4991939;28;20094;-63
2022/07/16 03:08:17;;;;;;;;;;;15.30;99.90;;;;;;4991922;28;25135;-63
2022/07/16 03:10:45;;;;;;;;;;;15.30;99.90;;;;;;4992303;28;20164;-63
2022/07/16 03:13:12;;;;;;;;;;;15.20;99.90;;;;;;4993975;28;20116;-63
2022/07/16 03:15:40;;;;;;;;;;;15.10;99.90;;;;;;4991216;28;20127;-63
2022/07/16 03:18:08;;;;;;;;;;;15.10;99.90;;;;;;4995857;28;20849;-63
2022/07/16 03:20:36;;;;;;;;;;;15.10;99.90;;;;;;4994398;28;20968;-64
2022/07/16 03:23:05;;;;;;;;;;;15.20;99.90;;;;;;4991184;28;20684;-63
2022/07/16 03:25:33;;;;;;;;;;;15.10;99.90;;;;;;4993857;28;20858;-63
2022/07/16 03:28:01;;;;;;;;;;;15.20;99.90;;;;;;4991367;28;20843;-63
2022/07/16 03:30:29;;;;;;;;;;;15.20;99.90;;;;;;4995553;28;20218;-63
2022/07/16 03:32:57;;;;;;;;;;;15.10;99.90;;;;;;4991918;28;20292;-63
2022/07/16 03:35:25;;;;;;;;;;;15.10;99.90;;;;;;4993875;28;21177;-63
2022/07/16 03:40:39;;;;;;;;;;;15.00;99.90;;;;;;4992641;28;25094;-63
2022/07/16 03:43:07;;;;;;;;;;;15.00;99.90;;;;;;4994022;28;20211;-64
2022/07/16 03:45:35;;;;;;;;;;;15.10;99.90;;;;;;4996401;28;20664;-63
2022/07/16 03:48:03;;;;;;;;;;;15.10;99.90;;;;;;4994381;28;20269;-64
2022/07/16 03:50:31;;;;;;;;;;;15.10;99.90;;;;;;4993731;28;21029;-62
2022/07/16 03:52:59;;;;;;;;;;;15.10;99.90;;;;;;4987396;28;20100;-63
2022/07/16 03:55:27;;;;;;;;;;;15.20;99.90;;;;;;4994217;28;20110;-63
2022/07/16 03:57:56;;;;;;;;;;;15.20;99.90;;;;;;4992577;28;20257;-64
2022/07/16 04:00:24;;;;;;;;;;;15.30;99.90;;;;;;4998007;28;20638;-63
2022/07/16 04:02:51;;;;;;;;;;;15.30;99.90;;;;;;4992161;28;20227;-63
2022/07/16 04:05:20;;;;;;;;;;;15.30;99.90;;;;;;4977252;28;20077;-64
2022/07/16 04:07:48;;;;;;;;;;;15.40;99.90;;;;;;4975920;28;20107;-63
2022/07/16 04:10:20;;;;;;;;;;;15.50;99.90;;;;;;4976840;28;25063;-64
2022/07/16 04:12:47;;;;;;;;;;;15.60;99.90;;;;;;4979690;28;20664;-64
2022/07/16 04:15:16;;;;;;;;;;;15.60;99.90;;;;;;4977143;28;20245;-64
2022/07/16 04:17:44;;;;;;;;;;;15.60;99.90;;;;;;4977655;28;20294;-64
2022/07/16 04:20:12;;;;;;;;;;;15.50;99.90;;;;;;4978794;28;20209;-64
2022/07/16 04:22:40;;;;;;;;;;;15.40;99.90;;;;;;4977443;28;20300;-64
2022/07/16 04:25:09;;;;;;;;;;;15.20;99.90;;;;;;4977347;28;20251;-64
2022/07/16 04:27:38;;;;;;;;;;;15.10;99.90;;;;;;4977540;28;20757;-63
2022/07/16 04:30:07;;;;;;;;;;;15.20;99.90;;;;;;4979382;28;20227;-63
2022/07/16 04:32:37;;;;;;;;;;;15.20;99.90;;;;;;4978234;28;20265;-63
2022/07/16 04:35:05;;;;;;;;;;;15.20;99.90;;;;;;4977329;28;20308;-64
2022/07/16 04:37:33;;;;;;;;;;;15.30;99.90;;;;;;4975865;28;20250;-64
2022/07/16 04:40:01;;;;;;;;;;;15.20;99.90;;;;;;4961685;28;20321;-64
2022/07/16 04:42:29;;;;;;;;;;;15.30;99.90;;;;;;4976159;28;20218;-65
2022/07/16 04:44:57;;;;;;;;;;;15.50;99.90;;;;;;4977592;28;20267;-64
2022/07/16 04:47:25;;;;;;;;;;;15.50;99.90;;;;;;4976669;28;20203;-63
2022/07/16 04:49:54;;;;;;;;;;;15.50;99.90;;;;;;4978242;28;20231;-64
2022/07/16 04:52:22;;;;;;;;;;;15.60;99.90;;;;;;4977816;28;20274;-64
2022/07/16 04:54:50;;;;;;;;;;;15.70;99.90;;;;;;4977450;28;20211;-64
2022/07/16 04:57:18;;;;;;;;;;;15.70;99.90;;;;;;4975593;28;20214;-65
2022/07/16 04:59:46;;;;;;;;;;;15.80;99.90;;;;;;4978400;28;20118;-64
2022/07/16 05:05:00;;;;;;;;;;;15.70;99.90;;;;;;4976805;28;20254;-65
2022/07/16 05:07:28;;;;;;;;;;;15.80;99.90;;;;;;4976678;28;20097;-65
2022/07/16 05:09:56;;;;;;;;;;;15.80;99.90;;;;;;4978062;28;20073;-64
2022/07/16 05:12:24;;;;;;;;;;;15.80;99.90;;;;;;4977633;28;20373;-63
2022/07/16 05:14:52;;;;;;;;;;;15.70;99.90;;;;;;4976425;28;20206;-64
2022/07/16 05:17:19;;;;;;;;;;;15.80;99.90;;;;;;4976400;28;20170;-64
2022/07/16 05:19:47;;;;;;;;;;;15.80;99.90;;;;;;4977870;28;25098;-63
2022/07/16 05:22:16;;;;;;;;;;;15.80;99.90;;;;;;4977151;28;21471;-64
2022/07/16 05:24:44;;;;;;;;;;;15.90;99.90;;;;;;4977504;28;21371;-64
2022/07/16 05:27:12;;;;;;;;;;;16.00;99.90;;;;;;4975926;28;20206;-64
2022/07/16 05:29:39;;;;;;;;;;;16.10;99.90;;;;;;4976460;28;20094;-64
2022/07/16 05:32:07;;;;;;;;;;;16.10;99.90;;;;;;4977681;28;20308;-63
2022/07/16 05:34:35;;;;;;;;;;;16.30;99.90;;;;;;4977303;28;20282;-64
2022/07/16 05:37:03;;;;;;;;;;;16.30;99.90;;;;;;4976527;28;20262;-63
2022/07/16 05:39:32;;;;;;;;;;;16.50;99.90;;;;;;4977838;28;20236;-63
2022/07/16 05:42:00;;;;;;;;;;;16.40;99.90;;;;;;4977979;28;20198;-64
2022/07/16 05:44:28;;;;;;;;;;;16.50;99.90;;;;;;4976856;28;20099;-63
2022/07/16 05:46:55;;;;;;;;;;;16.50;99.90;;;;;;4970820;28;20203;-64
2022/07/16 05:49:23;;;;;;;;;;;16.60;99.90;;;;;;4978259;28;20319;-64
2022/07/16 05:51:51;;;;;;;;;;;16.70;99.90;;;;;;4976781;28;20303;-65
2022/07/16 05:54:19;;;;;;;;;;;16.90;99.90;;;;;;4977137;28;20203;-65
2022/07/16 05:56:48;;;;;;;;;;;17.00;99.90;;;;;;4974549;28;20226;-64
2022/07/16 05:59:16;;;;;;;;;;;17.10;99.90;;;;;;4977920;28;20209;-64
2022/07/16 06:01:44;;;;;;;;;;;17.20;99.90;;;;;;4976916;28;20204;-64
2022/07/16 06:04:16;;;;;;;;;;;17.30;99.90;;;;;;4976269;28;20777;-65
2022/07/16 06:06:44;;;;;;;;;;;17.50;99.90;;;;;;4974833;28;20703;-63
2022/07/16 06:09:12;;;;;;;;;;;17.60;99.90;;;;;;4976767;28;20073;-63
2022/07/16 06:11:40;;;;;;;;;;;17.70;99.90;;;;;;4976211;28;20677;-64
2022/07/16 06:14:09;;;;;;;;;;;17.80;99.90;;;;;;4975805;28;20697;-64
2022/07/16 06:16:39;;;;;;;;;;;17.90;99.90;;;;;;4973377;28;20079;-63
2022/07/16 06:19:07;;;;;;;;;;;18.00;99.90;;;;;;4976061;28;20200;-64
2022/07/16 06:21:35;;;;;;;;;;;18.10;99.90;;;;;;4977287;28;20211;-64
2022/07/16 06:24:03;;;;;;;;;;;18.20;99.90;;;;;;4976984;28;20211;-64
2022/07/16 06:26:30;;;;;;;;;;;18.40;99.90;;;;;;4974186;28;20278;-64
2022/07/16 06:28:58;;;;;;;;;;;18.60;99.90;;;;;;4977172;28;20685;-64
2022/07/16 06:31:27;;;;;;;;;;;18.70;99.90;;;;;;4976447;28;20250;-64
2022/07/16 06:33:55;;;;;;;;;;;18.90;99.90;;;;;;4976800;28;20207;-64
2022/07/16 06:36:23;;;;;;;;;;;19.10;99.90;;;;;;4973613;28;20969;-64
2022/07/16 06:38:51;;;;;;;;;;;19.30;99.90;;;;;;4977252;28;20220;-64
2022/07/16 06:41:19;;;;;;;;;;;19.50;99.90;;;;;;4976322;28;20203;-64
2022/07/16 06:43:46;;;;;;;;;;;19.50;99.00;;;;;;4974999;28;20286;-65
2022/07/16 06:46:14;;;;;;;;;;;19.50;98.80;;;;;;4973584;28;21111;-64
2022/07/16 06:48:43;;;;;;;;;;;19.50;99.00;;;;;;4976212;28;20816;-65
2022/07/16 06:51:12;;;;;;;;;;;19.60;99.60;;;;;;4974207;28;20265;-64
2022/07/16 06:53:40;;;;;;;;;;;19.80;98.90;;;;;;4973287;28;20290;-64
2022/07/16 06:56:08;;;;;;;;;;;20.00;98.50;;;;;;4972932;28;20203;-64
2022/07/16 06:58:36;;;;;;;;;;;20.20;98.80;;;;;;4975246;28;20253;-65
2022/07/16 07:01:04;;;;;;;;;;;20.40;98.60;;;;;;4987883;28;20250;-64
2022/07/16 07:03:31;;;;;;;;;;;20.60;98.20;;;;;;4992355;28;20210;-63
2022/07/16 07:06:01;;;;;;;;;;;20.70;97.30;;;;;;4993821;28;20219;-64
2022/07/16 07:08:29;;;;;;;;;;;20.80;97.40;;;;;;4989027;28;20199;-64
2022/07/16 07:10:59;;;;;;;;;;;20.90;97.10;;;;;;4992440;28;20315;-64
2022/07/16 07:13:29;;;;;;;;;;;21.10;97.30;;;;;;4992965;28;20195;-65
2022/07/16 07:15:58;;;;;;;;;;;21.20;97.50;;;;;;4991748;28;20249;-64
2022/07/16 07:18:26;;;;;;;;;;;21.30;97.40;;;;;;4992216;28;20214;-64
2022/07/16 07:20:56;;;;;;;;;;;21.50;96.80;;;;;;4992430;28;20567;-64
2022/07/16 07:23:25;;;;;;;;;;;21.70;96.60;;;;;;4993077;28;20592;-64
2022/07/16 07:25:53;;;;;;;;;;;21.90;96.00;;;;;;4997775;28;20199;-64
2022/07/16 07:28:20;;;;;;;;;;;22.10;95.70;;;;;;4992947;28;20207;-64
2022/07/16 07:30:48;;;;;;;;;;;22.20;95.20;;;;;;4992691;28;20204;-64
2022/07/16 07:33:16;;;;;;;;;;;22.40;95.70;;;;;;4992333;28;20208;-64
2022/07/16 07:35:44;;;;;;;;;;;22.50;94.70;;;;;;4992529;28;20212;-64
2022/07/16 07:38:12;;;;;;;;;;;22.60;93.50;;;;;;4992616;28;20203;-64
2022/07/16 07:40:47;;;;;;;;;;;22.60;93.70;;;;;;5000227;28;20222;-64
2022/07/16 07:43:16;;;;;;;;;;;22.40;92.90;;;;;;5010954;28;20196;-64
2022/07/16 07:45:44;;;;;;;;;;;22.20;93.10;;;;;;5015067;28;20555;-64
2022/07/16 07:48:13;;;;;;;;;;;22.10;93.00;;;;;;5014869;28;20739;-64
2022/07/16 07:50:41;;;;;;;;;;;22.10;93.20;;;;;;5015059;28;20202;-64
2022/07/16 07:53:08;;;;;;;;;;;22.00;93.50;;;;;;5006556;28;20582;-64
2022/07/16 07:55:36;;;;;;;;;;;21.90;92.90;;;;;;5005176;28;20192;-64
2022/07/16 07:58:06;;;;;;;;;;;21.90;92.90;;;;;;4991766;28;20204;-64
2022/07/16 08:00:34;;;;;;;;;;;22.00;92.70;;;;;;4996010;28;20543;-64
2022/07/16 08:03:08;;;;;;;;;;;22.20;92.90;;;;;;4995678;28;20307;-64
2022/07/16 08:05:37;;;;;;;;;;;22.50;92.10;;;;;;4996524;28;20207;-64
2022/07/16 08:08:05;;;;;;;;;;;22.70;91.90;;;;;;4995896;28;20204;-64
2022/07/16 08:10:32;;;;;;;;;;;22.70;91.00;;;;;;4995917;28;20192;-64
2022/07/16 08:13:00;;;;;;;;;;;22.80;91.40;;;;;;4995839;28;20257;-64
2022/07/16 08:15:29;;;;;;;;;;;23.00;91.10;;;;;;4995720;28;20215;-64
2022/07/16 08:17:57;;;;;;;;;;;23.20;90.60;;;;;;4995797;28;20208;-64
2022/07/16 08:20:25;;;;;;;;;;;23.50;90.30;;;;;;4995697;28;20214;-64
2022/07/16 08:22:53;;;;;;;;;;;23.70;90.20;;;;;;4995506;28;20203;-64
2022/07/16 08:28:07;;;;;;;;;;;23.70;89.70;;;;;;5014357;28;20261;-63
2022/07/16 08:30:36;;;;;;;;;;;23.70;90.00;;;;;;5014288;28;20199;-64
2022/07/16 08:33:04;;;;;;;;;;;23.90;89.60;;;;;;5013794;28;20206;-64
2022/07/16 08:35:32;;;;;;;;;;;24.20;90.10;;;;;;5008256;28;20192;-64
2022/07/16 08:38:00;;;;;;;;;;;24.30;89.40;;;;;;4995229;28;20743;-64
2022/07/16 08:40:27;;;;;;;;;;;24.40;89.00;;;;;;4995533;28;20196;-65
2022/07/16 08:42:55;;;;;;;;;;;24.60;88.90;;;;;;4995240;28;20200;-64
2022/07/16 08:45:24;;;;;;;;;;;24.90;88.30;;;;;;4995315;28;20687;-64
2022/07/16 08:47:53;;;;;;;;;;;25.30;88.10;;;;;;4995667;28;20303;-64
2022/07/16 08:50:21;;;;;;;;;;;25.40;86.00;;;;;;4995411;28;20261;-64
2022/07/16 08:52:50;;;;;;;;;;;25.50;88.80;;;;;;4994777;28;20287;-64
2022/07/16 08:55:18;;;;;;;;;;;25.50;85.80;;;;;;5000159;28;20672;-64
2022/07/16 08:57:47;;;;;;;;;;;25.40;87.60;;;;;;4996545;28;20203;-64
2022/07/16 09:00:15;;;;;;;;;;;25.30;85.30;;;;;;4995116;28;20204;-64
2022/07/16 09:02:43;;;;;;;;;;;25.30;86.20;;;;;;4994067;28;20200;-64
2022/07/16 09:05:12;;;;;;;;;;;25.50;88.60;;;;;;4995081;28;20204;-64
2022/07/16 09:07:40;;;;;;;;;;;25.60;85.90;;;;;;4994694;28;20207;-64
2022/07/16 09:10:09;;;;;;;;;;;25.50;85.30;;;;;;4995021;28;20223;-64
2022/07/16 09:12:38;;;;;;;;;;;25.50;87.00;;;;;;4994473;28;20266;-64
2022/07/16 09:15:24;;;;;;;;;;;25.30;86.10;;;;;;5013128;28;20278;-64
2022/07/16 09:18:11;;;;;;;;;;;25.40;86.00;;;;;;5008792;28;20273;-64
2022/07/16 09:20:41;;;;;;;;;;;25.00;85.80;;;;;;4995137;28;20195;-64
2022/07/16 09:23:26;;;;;;;;;;;24.70;85.70;;;;;;4994883;28;20250;-64
2022/07/16 09:25:55;;;;;;;;;;;24.70;86.30;;;;;;5002914;28;20680;-64
2022/07/16 09:28:24;;;;;;;;;;;24.90;85.40;;;;;;5013279;28;20199;-64
2022/07/16 09:30:52;;;;;;;;;;;25.00;87.30;;;;;;5013331;28;20283;-64
2022/07/16 09:33:20;;;;;;;;;;;25.40;85.10;;;;;;5012979;28;20201;-64
2022/07/16 09:36:04;;;;;;;;;;;25.40;84.40;;;;;;5013153;28;20191;-64
2022/07/16 09:38:44;;;;;;;;;;;25.50;84.20;;;;;;5005966;28;20207;-65
2022/07/16 09:41:13;;;;;;;;;;;25.60;84.20;;;;;;5013091;28;20253;-64
2022/07/16 09:43:41;;;;;;;;;;;25.80;83.40;;;;;;5012790;28;20219;-65
2022/07/16 09:46:09;;;;;;;;;;;26.00;82.70;;;;;;4993526;28;20669;-64
2022/07/16 09:48:37;;;;;;;;;;;26.20;82.50;;;;;;5011763;28;20203;-64
2022/07/16 09:51:15;;;;;;;;;;;26.30;82.40;;;;;;5013091;28;20236;-64
2022/07/16 09:53:44;;;;;;;;;;;26.20;82.40;;;;;;4999281;28;20210;-64
2022/07/16 09:56:13;;;;;;;;;;;26.40;81.50;;;;;;4993333;28;20253;-64
2022/07/16 09:58:45;;;;;;;;;;;26.60;80.50;;;;;;5001486;28;20202;-64
2022/07/16 10:01:13;;;;;;;;;;;26.60;80.40;;;;;;5012613;28;20273;-65
2022/07/16 10:03:41;;;;;;;;;;;26.90;80.50;;;;;;5012388;28;20685;-64
2022/07/16 10:06:09;;;;;;;;;;;27.30;80.40;;;;;;5012450;28;20294;-64
2022/07/16 10:08:39;;;;;;;;;;;27.60;79.30;;;;;;5002611;28;20230;-64
2022/07/16 10:11:08;;;;;;;;;;;27.70;78.90;;;;;;4988308;28;20619;-64
2022/07/16 10:13:37;;;;;;;;;;;27.90;78.10;;;;;;4993064;28;20820;-64
2022/07/16 10:16:05;;;;;;;;;;;28.10;76.90;;;;;;4988431;28;20220;-64
2022/07/16 10:18:35;;;;;;;;;;;28.00;77.10;;;;;;4993274;28;20231;-65
2022/07/16 10:21:06;;;;;;;;;;;28.00;76.60;;;;;;4993742;28;20208;-65
2022/07/16 10:23:35;;;;;;;;;;;28.10;77.70;;;;;;4993108;28;20196;-65
2022/07/16 10:26:06;;;;;;;;;;;28.00;75.90;;;;;;4999814;28;20191;-64
2022/07/16 10:28:40;;;;;;;;;;;27.90;76.70;;;;;;4996973;28;20199;-65
2022/07/16 10:31:29;;;;;;;;;;;28.10;76.70;;;;;;4993479;28;20242;-65
2022/07/16 10:34:15;;;;;;;;;;;28.30;75.20;;;;;;4992851;28;20202;-64
2022/07/16 10:36:45;;;;;;;;;;;28.00;75.80;;;;;;4993263;28;20215;-64
2022/07/16 10:39:15;;;;;;;;;;;28.00;76.10;;;;;;5001066;28;20668;-64
2022/07/16 10:41:51;;;;;;;;;;;27.80;76.70;;;;;;5012034;28;20222;-64
2022/07/16 10:44:20;;;;;;;;;;;27.60;75.60;;;;;;5011866;28;20234;-64
2022/07/16 10:46:51;;;;;;;;;;;27.40;76.00;;;;;;5011897;28;20305;-64
2022/07/16 10:49:22;;;;;;;;;;;26.90;76.10;;;;;;4993647;28;22272;-64
2022/07/16 10:51:56;;;;;;;;;;;26.40;76.90;;;;;;5004677;28;20221;-64
2022/07/16 10:54:26;;;;;;;;;;;26.50;78.10;;;;;;5011831;28;20198;-64
2022/07/16 10:56:57;;;;;;;;;;;27.30;78.40;;;;;;4976127;28;20208;-65
2022/07/16 10:59:28;;;;;;;;;;;28.00;77.00;;;;;;5011449;28;20206;-64
2022/07/16 11:01:56;;;;;;;;;;;27.40;77.50;;;;;;5011639;28;20203;-64
2022/07/16 11:04:28;;;;;;;;;;;27.50;77.90;;;;;;5004219;28;20211;-63
2022/07/16 11:06:57;;;;;;;;;;;27.30;78.60;;;;;;4992576;28;20204;-65
2022/07/16 11:09:25;;;;;;;;;;;27.60;78.30;;;;;;4986601;28;20203;-64
2022/07/16 11:11:54;;;;;;;;;;;27.70;77.90;;;;;;4986564;28;20208;-65
2022/07/16 11:14:30;;;;;;;;;;;27.40;79.20;;;;;;4986328;28;20215;-64
2022/07/16 11:16:58;;;;;;;;;;;27.10;79.30;;;;;;4987533;28;20266;-64
2022/07/16 11:19:26;;;;;;;;;;;27.40;79.60;;;;;;4999064;28;20258;-64
2022/07/16 11:21:55;;;;;;;;;;;27.80;79.30;;;;;;5011740;28;20660;-65
2022/07/16 11:24:23;;;;;;;;;;;28.00;79.60;;;;;;5006970;28;20203;-65
2022/07/16 11:26:52;;;;;;;;;;;28.10;77.60;;;;;;5003612;28;20196;-64
2022/07/16 11:29:21;;;;;;;;;;;27.60;78.70;;;;;;5011358;28;20203;-65
2022/07/16 11:31:50;;;;;;;;;;;27.70;79.40;;;;;;5011647;28;20258;-65
2022/07/16 11:34:24;;;;;;;;;;;28.20;79.40;;;;;;5002238;28;20681;-65
2022/07/16 11:36:52;;;;;;;;;;;28.70;79.50;;;;;;4992410;28;20664;-65
2022/07/16 11:39:21;;;;;;;;;;;28.50;78.00;;;;;;4992546;28;20258;-64
2022/07/16 11:41:51;;;;;;;;;;;27.60;79.60;;;;;;4992508;28;20262;-65
2022/07/16 11:44:20;;;;;;;;;;;26.90;81.20;;;;;;4992165;28;20250;-64
2022/07/16 11:46:50;;;;;;;;;;;26.30;81.50;;;;;;4992694;28;20227;-64
2022/07/16 11:49:22;;;;;;;;;;;25.70;82.70;;;;;;4992665;28;20206;-64
2022/07/16 11:51:50;;;;;;;;;;;25.60;84.00;;;;;;4992569;28;20208;-64
2022/07/16 11:54:19;;;;;;;;;;;26.10;85.80;;;;;;4991928;28;20340;-64
2022/07/16 11:56:47;;;;;;;;;;;26.90;84.90;;;;;;5001580;28;20759;-64
2022/07/16 11:59:33;;;;;;;;;;;27.30;82.00;;;;;;4995309;28;20283;-64
2022/07/16 12:02:03;;;;;;;;;;;27.90;81.10;;;;;;4992404;28;20311;-64
2022/07/16 12:04:32;;;;;;;;;;;28.60;81.20;;;;;;4992268;28;20219;-64
2022/07/16 12:07:00;;;;;;;;;;;29.10;80.90;;;;;;4992380;28;20596;-64
2022/07/16 12:09:32;;;;;;;;;;;29.60;79.50;;;;;;4992096;28;20192;-65
2022/07/16 12:12:01;;;;;;;;;;;30.20;77.60;;;;;;4990690;28;20200;-65
2022/07/16 12:14:42;;;;;;;;;;;29.90;77.10;;;;;;4991985;28;20203;-64
2022/07/16 12:17:33;;;;;;;;;;;29.40;78.00;;;;;;5006923;28;20750;-65
2022/07/16 12:20:19;;;;;;;;;;;28.40;80.20;;;;;;4992212;28;20199;-65
2022/07/16 12:22:57;;;;;;;;;;;27.70;81.90;;;;;;4992180;28;20275;-64
2022/07/16 12:25:30;;;;;;;;;;;27.90;80.50;;;;;;4993399;28;20191;-64
2022/07/16 12:27:59;;;;;;;;;;;28.30;80.20;;;;;;5000476;28;20282;-64
2022/07/16 12:30:34;;;;;;;;;;;29.20;80.60;;;;;;4993747;28;20660;-64
2022/07/16 12:33:04;;;;;;;;;;;29.70;78.50;;;;;;4995460;28;20191;-64
2022/07/16 12:35:36;;;;;;;;;;;29.50;78.00;;;;;;4995614;28;20242;-64
2022/07/16 12:38:04;;;;;;;;;;;29.30;78.20;;;;;;4995308;28;20226;-64
2022/07/16 12:40:33;;;;;;;;;;;29.00;77.90;;;;;;4995636;28;20204;-64
2022/07/16 12:43:01;;;;;;;;;;;28.80;76.50;;;;;;4995541;28;20196;-64
2022/07/16 12:45:29;;;;;;;;;;;28.00;76.50;;;;;;4995290;28;20573;-64
2022/07/16 12:47:57;;;;;;;;;;;27.40;78.40;;;;;;4995003;28;20210;-64
2022/07/16 12:50:26;;;;;;;;;;;27.20;78.60;;;;;;4995608;28;20238;-64
2022/07/16 12:52:54;;;;;;;;;;;27.40;79.70;;;;;;4995114;28;20251;-64
2022/07/16 13:03:43;;;;;;;;;;;29.40;76.90;;;;;;4953179;28;20196;-63
2022/07/16 13:06:13;;;;;;;;;;;29.30;76.50;;;;;;4956209;28;20292;-63
2022/07/16 13:08:41;;;;;;;;;;;28.70;78.00;;;;;;4974893;28;20320;-64
2022/07/16 13:11:10;;;;;;;;;;;28.60;77.90;;;;;;4974817;28;20200;-64
2022/07/16 13:13:38;;;;;;;;;;;28.70;76.60;;;;;;4968645;28;20196;-64
2022/07/16 13:16:07;;;;;;;;;;;29.10;77.60;;;;;;4968825;28;20231;-64
2022/07/16 13:18:35;;;;;;;;;;;29.30;75.30;;;;;;4968886;28;20258;-63
2022/07/16 13:21:03;;;;;;;;;;;29.70;76.90;;;;;;4968973;28;20262;-64
2022/07/16 13:23:32;;;;;;;;;;;30.10;73.10;;;;;;4974614;28;20258;-63
2022/07/16 13:26:00;;;;;;;;;;;30.60;73.20;;;;;;4976097;28;20669;-64
2022/07/16 13:28:28;;;;;;;;;;;31.30;71.70;;;;;;4974214;28;20278;-64
2022/07/16 13:30:56;;;;;;;;;;;31.60;70.40;;;;;;4972805;28;20204;-65
2022/07/16 13:33:24;;;;;;;;;;;31.80;69.20;;;;;;4970778;28;20200;-64
2022/07/16 13:35:53;;;;;;;;;;;31.60;68.90;;;;;;4969483;28;20247;-64
2022/07/16 13:38:20;;;;;;;;;;;31.70;67.70;;;;;;4970262;28;20207;-64
2022/07/16 13:40:50;;;;;;;;;;;31.20;68.40;;;;;;4968440;28;20673;-64
2022/07/16 13:43:19;;;;;;;;;;;31.30;69.90;;;;;;4967910;28;20259;-65
2022/07/16 13:45:47;;;;;;;;;;;31.70;70.00;;;;;;4974680;28;20215;-64
2022/07/16 13:48:16;;;;;;;;;;;31.80;67.50;;;;;;4974863;28;20239;-64
2022/07/16 13:50:44;;;;;;;;;;;31.80;67.10;;;;;;4974710;28;20196;-65
2022/07/16 13:53:11;;;;;;;;;;;31.30;67.00;;;;;;4986082;28;20611;-64
2022/07/16 13:55:39;;;;;;;;;;;31.30;67.00;;;;;;4978681;28;20192;-65
2022/07/16 13:58:14;;;;;;;;;;;31.70;67.20;;;;;;4981605;28;20258;-64
2022/07/16 14:00:43;;;;;;;;;;;32.20;66.70;;;;;;4974625;28;20170;-65
2022/07/16 14:03:11;;;;;;;;;;;30.70;68.50;;;;;;4974792;28;20292;-65
2022/07/16 14:05:39;;;;;;;;;;;30.10;68.60;;;;;;4992883;28;20767;-65
2022/07/16 14:08:08;;;;;;;;;;;29.90;69.20;;;;;;4992991;28;20274;-65
2022/07/16 14:10:36;;;;;;;;;;;29.40;70.90;;;;;;4989397;28;20738;-65
2022/07/16 14:13:04;;;;;;;;;;;29.40;71.80;;;;;;4988048;28;20200;-65
2022/07/16 14:15:33;;;;;;;;;;;29.40;70.70;;;;;;4992798;28;20293;-64
2022/07/16 14:18:03;;;;;;;;;;;29.40;70.20;;;;;;4981228;28;20715;-64
2022/07/16 14:20:32;;;;;;;;;;;29.50;70.10;;;;;;4973873;28;20260;-64
2022/07/16 14:23:00;;;;;;;;;;;30.00;68.60;;;;;;4971520;28;20330;-64
2022/07/16 14:25:29;;;;;;;;;;;30.20;68.80;;;;;;4972017;28;20189;-64
2022/07/16 14:27:57;;;;;;;;;;;30.00;68.10;;;;;;4969666;28;20271;-64
2022/07/16 14:30:25;;;;;;;;;;;30.10;68.40;;;;;;4973288;28;20250;-64
2022/07/16 14:32:54;;;;;;;;;;;30.50;68.20;;;;;;4973474;28;20196;-64
2022/07/16 14:35:22;;;;;;;;;;;30.10;68.90;;;;;;4973664;28;20211;-64
2022/07/16 14:37:51;;;;;;;;;;;30.00;69.50;;;;;;4970883;28;20419;-64
2022/07/16 14:40:19;;;;;;;;;;;29.90;69.50;;;;;;4971328;28;20200;-65
2022/07/16 14:42:47;;;;;;;;;;;30.20;70.10;;;;;;4970484;28;20204;-64
2022/07/16 14:45:16;;;;;;;;;;;30.50;69.70;;;;;;4970543;28;20192;-64